createdAt,value
2023-05-22T00:01:56.532Z,16.20
2023-05-22T00:04:23.405Z,16.10
2023-05-22T00:06:50.449Z,16.00
2023-05-22T00:09:17.215Z,16.00
2023-05-22T00:11:43.888Z,16.00
2023-05-22T00:14:10.627Z,15.90
2023-05-22T00:16:39.478Z,16.00
2023-05-22T00:19:07.130Z,15.90
2023-05-22T00:21:34.681Z,15.90
2023-05-22T00:24:02.035Z,16.00
2023-05-22T00:26:28.740Z,16.10
2023-05-22T00:28:55.690Z,16.00
2023-05-22T00:31:22.795Z,16.00
2023-05-22T00:33:49.609Z,16.00
2023-05-22T00:36:16.354Z,15.90
2023-05-22T00:38:43.058Z,16.00
2023-05-22T00:41:09.719Z,16.10
2023-05-22T00:43:39.333Z,16.10
2023-05-22T00:46:07.656Z,16.20
2023-05-22T00:48:34.540Z,16.20
2023-05-22T00:51:01.736Z,16.10
2023-05-22T00:53:29.908Z,16.10
2023-05-22T00:55:58.538Z,16.10
2023-05-22T00:58:27.389Z,16.20
2023-05-22T01:00:55.245Z,16.20
2023-05-22T01:03:26.285Z,16.30
2023-05-22T01:05:54.355Z,16.20
2023-05-22T01:08:21.487Z,16.20
2023-05-22T01:10:54.618Z,16.20
2023-05-22T01:13:33.673Z,16.30
2023-05-22T01:16:19.674Z,16.20
2023-05-22T01:19:00.758Z,16.30
2023-05-22T01:21:46.898Z,16.30
2023-05-22T01:24:25.495Z,16.10
2023-05-22T01:27:29.855Z,16.00
2023-05-22T01:30:14.016Z,16.00
2023-05-22T01:32:43.650Z,16.10
2023-05-22T01:35:11.638Z,16.10
2023-05-22T01:37:39.114Z,16.10
2023-05-22T01:40:07.549Z,16.10
2023-05-22T01:42:35.247Z,16.10
2023-05-22T01:45:01.971Z,16.20
2023-05-22T01:47:28.881Z,16.20
2023-05-22T01:49:55.771Z,16.30
2023-05-22T01:52:31.932Z,16.40
2023-05-22T01:55:09.616Z,16.40
2023-05-22T01:57:47.841Z,16.40
2023-05-22T02:00:16.494Z,16.40
2023-05-22T02:02:48.057Z,16.40
2023-05-22T02:05:18.770Z,16.40
2023-05-22T02:07:47.581Z,16.50
2023-05-22T02:10:15.566Z,16.70
2023-05-22T02:12:42.891Z,16.70
2023-05-22T02:15:11.385Z,16.70
2023-05-22T02:17:42.511Z,16.70
2023-05-22T02:20:15.281Z,16.70
2023-05-22T02:22:45.301Z,16.60
2023-05-22T02:25:16.865Z,16.60
2023-05-22T02:27:45.893Z,16.60
2023-05-22T02:30:13.582Z,16.60
2023-05-22T02:32:42.250Z,16.60
2023-05-22T02:35:09.725Z,16.40
2023-05-22T02:37:37.102Z,16.50
2023-05-22T02:40:06.195Z,16.40
2023-05-22T02:42:34.419Z,16.40
2023-05-22T02:45:02.066Z,16.40
2023-05-22T02:47:28.847Z,16.30
2023-05-22T02:49:57.751Z,16.40
2023-05-22T02:52:24.879Z,16.20
2023-05-22T02:54:51.667Z,16.10
2023-05-22T02:57:19.251Z,16.30
2023-05-22T02:59:46.067Z,16.50
2023-05-22T03:02:15.252Z,16.50
2023-05-22T03:04:41.994Z,16.70
2023-05-22T03:07:09.342Z,16.80
2023-05-22T03:09:36.328Z,16.90
2023-05-22T03:12:03.375Z,17.00
2023-05-22T03:14:30.288Z,17.10
2023-05-22T03:17:02.411Z,17.10
2023-05-22T03:19:29.546Z,17.00
2023-05-22T03:21:56.370Z,17.00
2023-05-22T03:24:23.123Z,17.00
2023-05-22T03:26:50.108Z,17.20
2023-05-22T03:29:23.890Z,17.10
2023-05-22T03:31:50.683Z,17.10
2023-05-22T03:34:17.385Z,17.10
2023-05-22T03:36:46.499Z,17.10
2023-05-22T03:39:15.624Z,17.10
2023-05-22T03:41:51.171Z,17.10
2023-05-22T03:44:18.489Z,17.10
2023-05-22T03:46:46.237Z,17.10
2023-05-22T03:49:12.886Z,17.20
2023-05-22T03:51:39.543Z,17.10
2023-05-22T03:54:06.216Z,17.10
2023-05-22T03:56:32.905Z,17.10
2023-05-22T03:58:59.630Z,17.10
2023-05-22T04:01:27.240Z,17.10
2023-05-22T04:03:53.876Z,17.20
2023-05-22T04:06:23.454Z,17.20
2023-05-22T04:08:50.102Z,17.20
2023-05-22T04:11:17.008Z,17.10
2023-05-22T04:13:44.837Z,17.10
2023-05-22T04:16:11.549Z,17.20
2023-05-22T04:18:38.378Z,17.10
2023-05-22T04:21:07.976Z,17.10
2023-05-22T04:23:34.896Z,17.10
2023-05-22T04:26:04.347Z,17.10
2023-05-22T04:28:30.988Z,17.10
2023-05-22T04:30:57.795Z,17.20
2023-05-22T04:33:24.615Z,17.20
2023-05-22T04:35:51.835Z,17.30
2023-05-22T04:38:18.791Z,17.20
2023-05-22T04:40:45.644Z,17.20
2023-05-22T04:43:13.668Z,17.20
2023-05-22T04:45:42.156Z,17.30
2023-05-22T04:48:09.117Z,17.30
2023-05-22T04:50:38.589Z,17.30
2023-05-22T04:53:05.935Z,17.40
2023-05-22T04:55:35.575Z,17.40
2023-05-22T04:58:02.682Z,17.40
2023-05-22T05:00:29.473Z,17.40
2023-05-22T05:02:57.969Z,17.50
2023-05-22T05:05:25.547Z,17.50
2023-05-22T05:07:53.717Z,17.50
2023-05-22T05:10:20.722Z,17.40
2023-05-22T05:12:47.359Z,17.40
2023-05-22T05:15:14.146Z,17.40
2023-05-22T05:17:41.056Z,17.40
2023-05-22T05:20:08.435Z,17.50
2023-05-22T05:22:35.827Z,17.60
2023-05-22T05:25:05.394Z,17.70
2023-05-22T05:27:32.224Z,17.80
2023-05-22T05:29:59.233Z,17.90
2023-05-22T05:32:32.945Z,18.10
2023-05-22T05:35:08.118Z,18.20
2023-05-22T05:37:51.586Z,18.30
2023-05-22T05:40:18.397Z,18.20
2023-05-22T05:42:49.652Z,18.20
2023-05-22T05:45:18.743Z,18.30
2023-05-22T05:47:45.832Z,18.30
2023-05-22T05:50:15.424Z,18.30
2023-05-22T05:52:42.760Z,18.50
2023-05-22T05:55:14.130Z,18.50
2023-05-22T05:57:41.458Z,18.70
2023-05-22T06:00:12.545Z,18.90
2023-05-22T06:02:42.863Z,19.10
2023-05-22T06:05:23.780Z,19.00
2023-05-22T06:07:58.754Z,19.00
2023-05-22T06:10:25.488Z,18.80
2023-05-22T06:12:59.021Z,18.90
2023-05-22T06:15:25.697Z,19.00
2023-05-22T06:17:52.552Z,19.00
2023-05-22T06:20:19.897Z,18.80
2023-05-22T06:22:47.205Z,18.90
2023-05-22T06:25:13.993Z,18.90
2023-05-22T06:27:40.847Z,19.00
2023-05-22T06:30:08.622Z,19.30
2023-05-22T06:32:38.954Z,19.70
2023-05-22T06:35:07.186Z,19.90
2023-05-22T06:37:35.581Z,19.60
2023-05-22T06:40:03.449Z,19.80
2023-05-22T06:42:40.629Z,20.00
2023-05-22T06:45:25.725Z,20.10
2023-05-22T06:48:12.956Z,19.70
2023-05-22T06:50:52.917Z,19.70
2023-05-22T06:53:20.163Z,20.00
2023-05-22T06:55:47.757Z,20.20
2023-05-22T06:58:22.199Z,20.30
2023-05-22T07:00:50.437Z,20.40
2023-05-22T07:03:22.926Z,20.40
2023-05-22T07:06:16.181Z,20.60
2023-05-22T07:08:43.106Z,20.70
2023-05-22T07:11:09.789Z,20.20
2023-05-22T07:13:36.588Z,20.10
2023-05-22T07:16:06.277Z,20.40
2023-05-22T07:18:34.220Z,20.30
2023-05-22T07:21:01.495Z,20.10
2023-05-22T07:23:28.734Z,20.20
2023-05-22T07:25:55.522Z,20.10
2023-05-22T07:28:26.507Z,20.10
2023-05-22T07:31:00.848Z,20.40
2023-05-22T07:33:27.665Z,20.60
2023-05-22T07:35:55.535Z,20.50
2023-05-22T07:38:22.621Z,20.50
2023-05-22T07:40:56.744Z,20.50
2023-05-22T07:43:24.671Z,20.50
2023-05-22T07:45:53.882Z,20.60
2023-05-22T07:48:25.006Z,20.70
2023-05-22T07:50:51.811Z,20.80
2023-05-22T07:53:18.670Z,20.70
2023-05-22T07:55:49.109Z,20.50
2023-05-22T07:58:15.994Z,20.50
2023-05-22T08:00:44.388Z,20.70
2023-05-22T08:03:12.332Z,20.50
2023-05-22T08:05:39.293Z,20.40
2023-05-22T08:08:06.115Z,20.50
2023-05-22T08:10:52.127Z,20.50
2023-05-22T08:13:22.643Z,20.70
2023-05-22T08:15:49.370Z,20.50
2023-05-22T08:18:16.253Z,20.60
2023-05-22T08:20:42.970Z,21.00
2023-05-22T08:23:09.682Z,21.30
2023-05-22T08:25:37.076Z,21.30
2023-05-22T08:28:04.093Z,21.60
2023-05-22T08:30:31.046Z,22.10
2023-05-22T08:32:57.753Z,22.10
2023-05-22T08:35:24.476Z,22.00
2023-05-22T08:37:51.647Z,22.20
2023-05-22T08:40:20.338Z,22.20
2023-05-22T08:42:47.952Z,22.30
2023-05-22T08:45:16.124Z,22.60
2023-05-22T08:47:44.224Z,22.70
2023-05-22T08:50:12.153Z,22.80
2023-05-22T08:52:51.518Z,22.60
2023-05-22T08:55:19.398Z,22.80
2023-05-22T08:57:46.832Z,22.70
2023-05-22T09:00:14.141Z,22.90
2023-05-22T09:02:41.656Z,23.30
2023-05-22T09:05:09.704Z,23.40
2023-05-22T09:07:37.936Z,23.30
2023-05-22T09:10:06.976Z,23.30
2023-05-22T09:12:33.907Z,23.20
2023-05-22T09:15:10.165Z,23.60
2023-05-22T09:17:41.021Z,24.10
2023-05-22T09:20:10.367Z,24.30
2023-05-22T09:22:38.267Z,24.30
2023-05-22T09:25:06.834Z,24.40
2023-05-22T09:27:34.122Z,24.50
2023-05-22T09:30:01.063Z,24.80
2023-05-22T09:32:31.393Z,25.00
2023-05-22T09:35:05.282Z,25.10
2023-05-22T09:37:36.465Z,25.50
2023-05-22T09:40:11.135Z,25.50
2023-05-22T09:42:37.849Z,25.50
2023-05-22T09:45:11.366Z,25.30
2023-05-22T09:47:46.017Z,25.10
2023-05-22T09:50:12.680Z,24.80
2023-05-22T09:52:39.476Z,24.70
2023-05-22T09:55:08.576Z,24.60
2023-05-22T09:57:48.173Z,24.60
2023-05-22T10:00:17.913Z,24.70
2023-05-22T10:02:58.445Z,24.80
2023-05-22T10:05:33.864Z,24.90
2023-05-22T10:08:13.984Z,25.20
2023-05-22T10:10:43.571Z,25.40
2023-05-22T10:13:13.328Z,25.70
2023-05-22T10:15:41.053Z,26.00
2023-05-22T10:18:08.116Z,26.10
2023-05-22T10:20:35.629Z,26.20
2023-05-22T10:23:03.896Z,26.40
2023-05-22T10:25:30.722Z,26.30
2023-05-22T10:27:58.868Z,26.40
2023-05-22T10:30:34.646Z,26.50
2023-05-22T10:33:22.388Z,26.60
2023-05-22T10:35:59.034Z,26.60
2023-05-22T10:38:35.866Z,26.50
2023-05-22T10:41:06.710Z,26.20
2023-05-22T10:43:38.414Z,26.00
2023-05-22T10:46:07.130Z,25.70
2023-05-22T10:48:45.335Z,25.40
2023-05-22T10:51:22.319Z,25.30
2023-05-22T10:54:00.794Z,25.00
2023-05-22T10:56:34.792Z,25.00
2023-05-22T10:59:07.916Z,24.90
2023-05-22T11:01:39.642Z,25.20
2023-05-22T11:04:18.965Z,25.20
2023-05-22T11:07:08.502Z,25.10
2023-05-22T11:09:45.894Z,25.30
2023-05-22T11:12:19.220Z,25.30
2023-05-22T11:15:03.207Z,25.40
2023-05-22T11:17:31.092Z,25.60
2023-05-22T11:20:01.062Z,25.70
2023-05-22T11:22:39.697Z,26.00
2023-05-22T11:25:11.428Z,26.00
2023-05-22T11:27:40.540Z,26.20
2023-05-22T11:30:09.084Z,26.40
2023-05-22T11:32:40.461Z,26.60
2023-05-22T11:35:10.845Z,26.70
2023-05-22T11:37:41.538Z,26.90
2023-05-22T11:40:09.641Z,26.40
2023-05-22T11:42:37.591Z,26.70
2023-05-22T11:45:05.340Z,27.10
2023-05-22T11:47:32.312Z,27.20
2023-05-22T11:50:02.874Z,27.40
2023-05-22T11:52:34.033Z,27.50
2023-05-22T11:55:01.178Z,27.50
2023-05-22T11:57:28.320Z,27.60
2023-05-22T11:59:55.060Z,27.70
2023-05-22T12:02:21.874Z,27.40
2023-05-22T12:04:53.477Z,27.20
2023-05-22T12:07:21.537Z,27.20
2023-05-22T12:09:48.945Z,27.20
2023-05-22T12:12:16.300Z,27.40
2023-05-22T12:14:46.601Z,27.50
2023-05-22T12:17:14.321Z,27.60
2023-05-22T12:19:42.125Z,27.60
2023-05-22T12:22:10.165Z,27.80
2023-05-22T12:24:41.760Z,27.90
2023-05-22T12:27:12.740Z,28.10
2023-05-22T12:29:40.101Z,28.40
2023-05-22T12:32:12.174Z,28.60
2023-05-22T12:34:46.904Z,28.10
2023-05-22T12:37:24.962Z,28.10
2023-05-22T12:39:59.470Z,28.30
2023-05-22T12:42:26.890Z,28.60
2023-05-22T12:44:55.115Z,28.50
2023-05-22T12:47:22.985Z,28.80
2023-05-22T12:49:50.008Z,28.80
2023-05-22T12:52:16.750Z,28.50
2023-05-22T12:54:43.472Z,28.30
2023-05-22T12:57:10.307Z,28.50
2023-05-22T12:59:37.252Z,28.60
2023-05-22T13:02:07.267Z,28.70
2023-05-22T13:04:34.099Z,28.70
2023-05-22T13:07:01.025Z,28.70
2023-05-22T13:09:27.832Z,28.70
2023-05-22T13:11:55.359Z,28.90
2023-05-22T13:14:22.087Z,29.00
2023-05-22T13:16:48.765Z,29.10
2023-05-22T13:19:15.516Z,28.80
2023-05-22T13:21:43.308Z,29.00
2023-05-22T13:24:10.000Z,28.80
2023-05-22T13:26:36.658Z,28.70
2023-05-22T13:29:04.212Z,28.20
2023-05-22T13:31:33.249Z,27.70
2023-05-22T13:34:02.928Z,27.50
2023-05-22T13:36:30.037Z,27.60
2023-05-22T13:38:56.857Z,27.60
2023-05-22T13:41:23.973Z,27.50
2023-05-22T13:43:50.641Z,27.70
2023-05-22T13:46:18.077Z,27.70
2023-05-22T13:48:44.773Z,27.80
2023-05-22T13:51:11.445Z,27.40
2023-05-22T13:53:38.438Z,27.00
2023-05-22T13:56:05.245Z,26.90
2023-05-22T13:58:31.896Z,27.20
2023-05-22T14:00:58.861Z,27.40
2023-05-22T14:03:25.667Z,27.10
2023-05-22T14:05:52.386Z,26.80
2023-05-22T14:08:19.102Z,26.60
2023-05-22T14:10:45.993Z,26.30
2023-05-22T14:13:12.684Z,26.30
2023-05-22T14:15:39.881Z,25.80
2023-05-22T14:18:06.724Z,25.60
2023-05-22T14:20:33.596Z,25.40
2023-05-22T14:23:00.342Z,25.40
2023-05-22T14:25:27.023Z,25.50
2023-05-22T14:27:53.688Z,25.50
2023-05-22T14:30:20.350Z,25.80
2023-05-22T14:32:47.430Z,25.90
2023-05-22T14:35:14.285Z,26.10
2023-05-22T14:37:40.925Z,26.10
2023-05-22T14:40:08.370Z,26.30
2023-05-22T14:42:36.157Z,26.20
2023-05-22T14:45:04.079Z,26.10
2023-05-22T14:47:30.893Z,26.00
2023-05-22T14:50:03.117Z,26.00
2023-05-22T14:52:41.197Z,25.70
2023-05-22T14:55:08.289Z,25.20
2023-05-22T14:57:34.937Z,24.90
2023-05-22T15:00:01.751Z,24.80
2023-05-22T15:02:28.810Z,24.40
2023-05-22T15:04:55.909Z,24.00
2023-05-22T15:07:26.671Z,23.90
2023-05-22T15:09:59.431Z,24.10
2023-05-22T15:12:26.076Z,23.90
2023-05-22T15:14:52.718Z,23.80
2023-05-22T15:17:19.422Z,23.70
2023-05-22T15:19:48.601Z,23.60
2023-05-22T15:22:19.207Z,23.50
2023-05-22T15:25:06.231Z,23.50
2023-05-22T15:27:34.860Z,23.50
2023-05-22T15:30:02.903Z,23.60
2023-05-22T15:32:32.282Z,23.50
2023-05-22T15:34:58.980Z,23.50
2023-05-22T15:37:25.739Z,23.50
2023-05-22T15:39:52.385Z,23.60
2023-05-22T15:42:19.131Z,23.50
2023-05-22T15:44:45.836Z,23.40
2023-05-22T15:47:12.506Z,23.50
2023-05-22T15:49:39.147Z,23.50
2023-05-22T15:52:06.159Z,23.60
2023-05-22T15:54:32.847Z,23.50
2023-05-22T15:56:59.526Z,23.20
2023-05-22T15:59:26.447Z,23.00
2023-05-22T16:01:53.166Z,22.80
2023-05-22T16:04:19.857Z,22.80
2023-05-22T16:06:46.539Z,22.80
2023-05-22T16:09:13.237Z,22.80
2023-05-22T16:11:39.961Z,22.80
2023-05-22T16:14:06.740Z,22.70
2023-05-22T16:16:33.969Z,22.70
2023-05-22T16:19:00.777Z,22.70
2023-05-22T16:21:27.468Z,22.70
2023-05-22T16:23:54.315Z,22.70
2023-05-22T16:26:21.731Z,22.60
2023-05-22T16:28:48.386Z,22.50
2023-05-22T16:31:18.985Z,22.40
2023-05-22T16:33:46.089Z,22.20
2023-05-22T16:36:12.924Z,21.90
2023-05-22T16:38:39.595Z,21.90
2023-05-22T16:41:06.303Z,21.70
2023-05-22T16:43:33.118Z,21.50
2023-05-22T16:45:59.948Z,21.40
2023-05-22T16:48:26.823Z,21.20
2023-05-22T16:50:54.077Z,21.00
2023-05-22T16:53:20.828Z,20.90
2023-05-22T16:55:47.683Z,20.80
2023-05-22T16:58:14.462Z,20.70
2023-05-22T17:00:41.706Z,20.50
2023-05-22T17:03:09.568Z,20.30
2023-05-22T17:05:43.137Z,20.20
2023-05-22T17:08:13.251Z,20.10
2023-05-22T17:10:43.129Z,20.00
2023-05-22T17:13:11.949Z,19.90
2023-05-22T17:15:38.922Z,19.90
2023-05-22T17:18:05.873Z,19.80
2023-05-22T17:20:32.774Z,19.80
2023-05-22T17:22:59.568Z,19.80
2023-05-22T17:25:26.234Z,19.70
2023-05-22T17:27:52.879Z,19.50
2023-05-22T17:30:19.545Z,19.50
2023-05-22T17:32:46.480Z,19.50
2023-05-22T17:35:13.454Z,19.50
2023-05-22T17:37:40.403Z,19.50
2023-05-22T17:40:08.067Z,19.60
2023-05-22T17:42:34.788Z,19.70
2023-05-22T17:45:01.575Z,19.60
2023-05-22T17:47:28.298Z,19.40
2023-05-22T17:49:55.252Z,19.10
2023-05-22T17:52:22.365Z,18.90
2023-05-22T17:54:49.891Z,18.90
2023-05-22T17:57:16.632Z,18.80
2023-05-22T17:59:44.033Z,18.80
2023-05-22T18:02:11.167Z,18.70
2023-05-22T18:04:38.116Z,18.70
2023-05-22T18:07:05.224Z,18.80
2023-05-22T18:09:32.559Z,18.80
2023-05-22T18:12:01.750Z,18.70
2023-05-22T18:14:28.572Z,18.60
2023-05-22T18:16:55.373Z,18.70
2023-05-22T18:19:22.252Z,18.70
2023-05-22T18:21:49.088Z,18.80
2023-05-22T18:24:15.787Z,18.80
2023-05-22T18:26:42.513Z,18.80
2023-05-22T18:29:10.282Z,18.60
2023-05-22T18:31:36.999Z,18.30
2023-05-22T18:34:03.892Z,18.30
2023-05-22T18:36:31.593Z,18.30
2023-05-22T18:38:58.603Z,18.40
2023-05-22T18:41:26.092Z,18.40
2023-05-22T18:43:52.730Z,18.40
2023-05-22T18:46:19.402Z,18.40
2023-05-22T18:48:46.241Z,18.20
2023-05-22T18:51:13.438Z,18.10
2023-05-22T18:53:40.414Z,18.00
2023-05-22T18:56:07.068Z,18.00
2023-05-22T18:58:33.748Z,17.90
2023-05-22T19:01:01.593Z,17.80
2023-05-22T19:03:28.490Z,17.80
2023-05-22T19:05:55.313Z,17.60
2023-05-22T19:08:24.718Z,17.70
2023-05-22T19:10:51.590Z,17.70
2023-05-22T19:13:18.526Z,17.60
2023-05-22T19:15:46.309Z,17.60
2023-05-22T19:18:13.465Z,17.50
2023-05-22T19:20:40.532Z,17.50
2023-05-22T19:23:09.526Z,17.40
2023-05-22T19:25:36.194Z,17.30
2023-05-22T19:28:03.265Z,17.20
2023-05-22T19:30:30.081Z,17.00
2023-05-22T19:32:59.854Z,17.00
2023-05-22T19:35:26.634Z,16.80
2023-05-22T19:38:00.781Z,16.70
2023-05-22T19:40:27.456Z,16.70
2023-05-22T19:43:02.201Z,16.60
2023-05-22T19:45:29.339Z,16.50
2023-05-22T19:47:56.041Z,16.50
2023-05-22T19:50:22.868Z,16.50
2023-05-22T19:52:49.633Z,16.40
2023-05-22T19:55:16.361Z,16.30
2023-05-22T19:57:44.759Z,16.10
2023-05-22T20:00:12.285Z,16.10
2023-05-22T20:02:39.868Z,16.10
2023-05-22T20:05:12.884Z,16.10
2023-05-22T20:07:40.202Z,16.10
2023-05-22T20:10:10.093Z,16.10
2023-05-22T20:12:37.610Z,16.10
2023-05-22T20:15:06.752Z,16.00
2023-05-22T20:17:34.046Z,16.00
2023-05-22T20:20:00.914Z,16.10
2023-05-22T20:22:27.755Z,16.10
2023-05-22T20:24:54.498Z,16.20
2023-05-22T20:27:21.254Z,16.20
2023-05-22T20:29:50.125Z,16.20
2023-05-22T20:32:16.988Z,16.10
2023-05-22T20:34:45.361Z,16.10
2023-05-22T20:37:13.332Z,16.10
2023-05-22T20:39:42.958Z,16.10
2023-05-22T20:42:11.457Z,16.10
2023-05-22T20:44:38.542Z,16.10
2023-05-22T20:47:06.068Z,16.10
2023-05-22T20:49:34.582Z,16.00
2023-05-22T20:52:02.640Z,16.00
2023-05-22T20:57:03.958Z,15.80
2023-05-22T20:59:30.829Z,15.90
2023-05-22T21:01:57.819Z,15.80
2023-05-22T21:04:26.293Z,15.80
2023-05-22T21:06:53.082Z,15.80
2023-05-22T21:09:19.830Z,16.00
2023-05-22T21:11:46.741Z,16.00
2023-05-22T21:14:14.059Z,15.90
2023-05-22T21:16:40.838Z,15.90
2023-05-22T21:19:07.854Z,16.00
2023-05-22T21:21:36.100Z,16.00
2023-05-22T21:24:03.255Z,16.00
2023-05-22T21:26:30.085Z,16.00
2023-05-22T21:28:57.085Z,15.90
2023-05-22T21:31:24.290Z,15.90
2023-05-22T21:33:51.107Z,15.90
2023-05-22T21:36:17.869Z,15.90
2023-05-22T21:38:45.390Z,16.00
2023-05-22T21:41:12.559Z,16.00
2023-05-22T21:43:39.377Z,15.90
2023-05-22T21:46:06.079Z,16.00
2023-05-22T21:48:32.754Z,16.00
2023-05-22T21:50:59.644Z,16.00
2023-05-22T21:53:26.446Z,15.90
2023-05-22T21:55:53.147Z,15.90
2023-05-22T21:58:19.841Z,15.90
2023-05-22T22:00:46.586Z,15.90
2023-05-22T22:03:13.489Z,15.90
2023-05-22T22:05:40.251Z,16.00
2023-05-22T22:08:06.898Z,16.00
2023-05-22T22:10:33.603Z,16.00
2023-05-22T22:13:01.727Z,16.00
2023-05-22T22:15:28.481Z,16.10
2023-05-22T22:17:59.611Z,16.10
2023-05-22T22:20:42.631Z,16.00
2023-05-22T22:23:10.794Z,16.20
2023-05-22T22:25:38.861Z,16.10
2023-05-22T22:28:05.893Z,16.10
2023-05-22T22:30:32.691Z,16.10
2023-05-22T22:32:59.612Z,16.10
2023-05-22T22:35:26.459Z,16.10
2023-05-22T22:37:53.216Z,16.20
2023-05-22T22:40:19.850Z,16.10
2023-05-22T22:42:46.495Z,16.10
2023-05-22T22:45:14.596Z,16.20
2023-05-22T22:47:41.339Z,16.10
2023-05-22T22:50:09.748Z,16.10
2023-05-22T22:52:38.193Z,16.00
2023-05-22T22:55:06.539Z,16.00
2023-05-22T22:57:33.652Z,15.90
2023-05-22T23:00:00.549Z,16.00
2023-05-22T23:02:27.232Z,16.00
2023-05-22T23:04:54.116Z,16.00
2023-05-22T23:07:23.997Z,16.00
2023-05-22T23:09:50.728Z,16.00
2023-05-22T23:12:17.525Z,16.00
2023-05-22T23:14:44.826Z,16.00
2023-05-22T23:17:11.693Z,16.00
2023-05-22T23:19:38.382Z,15.80
2023-05-22T23:22:05.852Z,15.80
2023-05-22T23:24:32.501Z,15.90
2023-05-22T23:26:59.264Z,15.90
2023-05-22T23:29:25.940Z,15.90
2023-05-22T23:31:52.863Z,15.70
2023-05-22T23:34:19.595Z,15.60
2023-05-22T23:36:46.215Z,15.60
2023-05-22T23:39:12.837Z,15.60
2023-05-22T23:41:39.525Z,15.50
2023-05-22T23:44:06.236Z,15.50
2023-05-22T23:46:32.888Z,15.50
2023-05-22T23:48:59.578Z,15.40
2023-05-22T23:51:26.265Z,15.40
2023-05-22T23:53:52.872Z,15.50
2023-05-22T23:56:19.892Z,15.30
2023-05-22T23:58:46.518Z,15.30
